sensor_id;sensor_type;location;lat;lon;timestamp;pressure;altitude;pressure_sealevel;temperature;humidity
47274;BME280;33007;49.082;19.306;2022-11-11T00:04:06;97487.75;;;5.09;100.00
47274;BME280;33007;49.082;19.306;2022-11-11T00:06:31;97472.03;;;5.00;100.00
47274;BME280;33007;49.082;19.306;2022-11-11T00:08:58;97511.44;;;5.39;100.00
47274;BME280;33007;49.082;19.306;2022-11-11T00:11:24;97497.78;;;5.05;100.00
47274;BME280;33007;49.082;19.306;2022-11-11T00:13:49;97500.53;;;4.97;100.00
47274;BME280;33007;49.082;19.306;2022-11-11T00:16:18;97506.69;;;4.94;100.00
47274;BME280;33007;49.082;19.306;2022-11-11T00:18:44;97509.72;;;5.04;100.00
47274;BME280;33007;49.082;19.306;2022-11-11T00:21:30;97524.66;;;5.15;100.00
47274;BME280;33007;49.082;19.306;2022-11-11T00:27:02;97490.16;;;4.89;100.00
47274;BME280;33007;49.082;19.306;2022-11-11T00:29:29;97552.69;;;5.29;100.00
47274;BME280;33007;49.082;19.306;2022-11-11T00:31:55;97531.34;;;4.82;100.00
47274;BME280;33007;49.082;19.306;2022-11-11T00:34:41;97503.31;;;4.76;100.00
47274;BME280;33007;49.082;19.306;2022-11-11T00:37:26;97565.44;;;5.17;100.00
47274;BME280;33007;49.082;19.306;2022-11-11T00:39:52;97535.13;;;5.06;100.00
47274;BME280;33007;49.082;19.306;2022-11-11T00:42:17;97521.31;;;4.97;100.00
47274;BME280;33007;49.082;19.306;2022-11-11T00:44:43;97522.50;;;4.85;100.00
47274;BME280;33007;49.082;19.306;2022-11-11T00:47:09;97527.50;;;4.87;100.00
47274;BME280;33007;49.082;19.306;2022-11-11T00:52:36;97547.81;;;4.98;100.00
47274;BME280;33007;49.082;19.306;2022-11-11T00:55:02;97526.38;;;4.77;100.00
47274;BME280;33007;49.082;19.306;2022-11-11T00:57:27;97543.34;;;4.67;100.00
47274;BME280;33007;49.082;19.306;2022-11-11T00:59:53;97548.72;;;4.67;100.00
47274;BME280;33007;49.082;19.306;2022-11-11T01:02:18;97526.84;;;4.51;100.00
47274;BME280;33007;49.082;19.306;2022-11-11T01:04:44;97535.31;;;4.42;100.00
47274;BME280;33007;49.082;19.306;2022-11-11T01:12:53;97579.81;;;4.82;100.00
47274;BME280;33007;49.082;19.306;2022-11-11T01:15:36;97572.44;;;5.00;100.00
47274;BME280;33007;49.082;19.306;2022-11-11T01:18:02;97535.56;;;4.87;100.00
47274;BME280;33007;49.082;19.306;2022-11-11T01:20:27;97549.75;;;4.98;100.00
47274;BME280;33007;49.082;19.306;2022-11-11T01:22:53;97545.22;;;4.81;100.00
47274;BME280;33007;49.082;19.306;2022-11-11T01:25:20;97577.81;;;5.00;100.00
47274;BME280;33007;49.082;19.306;2022-11-11T01:27:46;97566.31;;;4.96;100.00
47274;BME280;33007;49.082;19.306;2022-11-11T01:30:12;97568.19;;;4.99;100.00
47274;BME280;33007;49.082;19.306;2022-11-11T01:32:41;97538.66;;;4.82;100.00
47274;BME280;33007;49.082;19.306;2022-11-11T01:35:07;97546.03;;;4.74;100.00
47274;BME280;33007;49.082;19.306;2022-11-11T01:37:33;97574.06;;;4.80;100.00
47274;BME280;33007;49.082;19.306;2022-11-11T01:39:59;97568.28;;;4.78;100.00
47274;BME280;33007;49.082;19.306;2022-11-11T01:42:25;97584.44;;;4.82;100.00
47274;BME280;33007;49.082;19.306;2022-11-11T01:44:51;97561.38;;;4.81;100.00
47274;BME280;33007;49.082;19.306;2022-11-11T01:47:20;97587.13;;;4.85;100.00
47274;BME280;33007;49.082;19.306;2022-11-11T02:01:11;97564.78;;;4.92;100.00
47274;BME280;33007;49.082;19.306;2022-11-11T02:03:39;97580.53;;;4.93;100.00
47274;BME280;33007;49.082;19.306;2022-11-11T02:06:07;97544.41;;;4.84;100.00
47274;BME280;33007;49.082;19.306;2022-11-11T02:08:34;97576.34;;;4.82;100.00
47274;BME280;33007;49.082;19.306;2022-11-11T02:11:11;97584.84;;;4.77;100.00
47274;BME280;33007;49.082;19.306;2022-11-11T02:13:39;97557.59;;;4.60;100.00
47274;BME280;33007;49.082;19.306;2022-11-11T02:16:25;97537.25;;;4.45;100.00
47274;BME280;33007;49.082;19.306;2022-11-11T02:18:52;97554.53;;;4.55;100.00
47274;BME280;33007;49.082;19.306;2022-11-11T13:59:42;97593.84;;;9.27;93.91
47274;BME280;33007;49.082;19.306;2022-11-11T14:12:47;97592.66;;;9.11;94.20
47274;BME280;33007;49.082;19.306;2022-11-11T14:15:36;97601.25;;;9.06;94.46
47274;BME280;33007;49.082;19.306;2022-11-11T14:20:48;97603.91;;;8.90;96.43
47274;BME280;33007;49.082;19.306;2022-11-11T14:25:43;97592.81;;;8.61;95.94
47274;BME280;33007;49.082;19.306;2022-11-11T14:28:29;97595.47;;;8.64;95.88
47274;BME280;33007;49.082;19.306;2022-11-11T14:33:59;97611.78;;;8.61;95.65
47274;BME280;33007;49.082;19.306;2022-11-11T14:41:48;97599.47;;;8.33;96.72
47274;BME280;33007;49.082;19.306;2022-11-11T14:49:54;97595.94;;;8.12;96.50
47274;BME280;33007;49.082;19.306;2022-11-11T14:52:39;97601.34;;;8.12;97.27
47274;BME280;33007;49.082;19.306;2022-11-11T14:55:27;97593.34;;;8.05;98.91
47274;BME280;33007;49.082;19.306;2022-11-11T15:00:25;97595.78;;;7.73;95.94
47274;BME280;33007;49.082;19.306;2022-11-11T15:03:09;97589.34;;;7.63;96.82
47274;BME280;33007;49.082;19.306;2022-11-11T15:06:01;97582.56;;;7.51;97.58
47274;BME280;33007;49.082;19.306;2022-11-11T15:11:32;97609.53;;;7.55;98.06
47274;BME280;33007;49.082;19.306;2022-11-11T15:32:50;97628.19;;;7.15;97.70
47274;BME280;33007;49.082;19.306;2022-11-11T15:35:40;97599.22;;;6.81;96.82
47274;BME280;33007;49.082;19.306;2022-11-11T15:38:12;97620.81;;;6.85;98.64
47274;BME280;33007;49.082;19.306;2022-11-11T15:44:01;97608.88;;;6.82;98.94
47274;BME280;33007;49.082;19.306;2022-11-11T15:46:28;97633.53;;;6.85;99.05
47274;BME280;33007;49.082;19.306;2022-11-11T15:48:54;97608.72;;;6.59;97.67
47274;BME280;33007;49.082;19.306;2022-11-11T15:53:45;97634.94;;;6.62;100.00
47274;BME280;33007;49.082;19.306;2022-11-11T15:56:28;97615.84;;;6.39;99.91
47274;BME280;33007;49.082;19.306;2022-11-11T15:58:54;97608.22;;;6.30;98.23
47274;BME280;33007;49.082;19.306;2022-11-11T16:01:24;97611.69;;;6.30;99.09
47274;BME280;33007;49.082;19.306;2022-11-11T16:03:50;97609.84;;;6.20;98.70
47274;BME280;33007;49.082;19.306;2022-11-11T16:06:16;97589.97;;;5.96;97.45
47274;BME280;33007;49.082;19.306;2022-11-11T16:08:43;97604.59;;;6.02;96.75
47274;BME280;33007;49.082;19.306;2022-11-11T16:11:14;97640.38;;;6.10;97.39
47274;BME280;33007;49.082;19.306;2022-11-11T16:13:48;97644.56;;;6.15;97.93
47274;BME280;33007;49.082;19.306;2022-11-11T16:16:28;97634.97;;;6.10;96.86
47274;BME280;33007;49.082;19.306;2022-11-11T16:24:02;97597.78;;;5.80;98.31
47274;BME280;33007;49.082;19.306;2022-11-11T16:26:31;97615.19;;;5.68;97.34
47274;BME280;33007;49.082;19.306;2022-11-11T16:28:58;97622.09;;;5.73;98.24
47274;BME280;33007;49.082;19.306;2022-11-11T16:34:00;97655.50;;;5.90;99.38
47274;BME280;33007;49.082;19.306;2022-11-11T16:37:02;97630.63;;;5.64;98.34
47274;BME280;33007;49.082;19.306;2022-11-11T16:39:29;97658.63;;;5.85;98.35
47274;BME280;33007;49.082;19.306;2022-11-11T16:41:56;97630.25;;;5.59;98.18
47274;BME280;33007;49.082;19.306;2022-11-11T16:44:48;97660.25;;;5.71;98.33
47274;BME280;33007;49.082;19.306;2022-11-11T16:52:42;97605.34;;;5.37;98.94
47274;BME280;33007;49.082;19.306;2022-11-11T16:55:28;97611.16;;;5.35;100.00
47274;BME280;33007;49.082;19.306;2022-11-11T16:57:55;97610.44;;;5.28;100.00
47274;BME280;33007;49.082;19.306;2022-11-11T17:00:22;97663.00;;;5.61;100.00
47274;BME280;33007;49.082;19.306;2022-11-11T17:03:24;97592.03;;;5.12;100.00
47274;BME280;33007;49.082;19.306;2022-11-11T17:05:53;97655.69;;;5.58;100.00
47274;BME280;33007;49.082;19.306;2022-11-11T17:08:40;97648.81;;;5.42;100.00
47274;BME280;33007;49.082;19.306;2022-11-11T17:11:08;97615.81;;;5.28;100.00
47274;BME280;33007;49.082;19.306;2022-11-11T17:13:34;97630.00;;;5.35;100.00
47274;BME280;33007;49.082;19.306;2022-11-11T17:16:02;97608.97;;;5.09;99.43
47274;BME280;33007;49.082;19.306;2022-11-11T17:18:30;97610.13;;;5.08;100.00
47274;BME280;33007;49.082;19.306;2022-11-11T17:20:57;97590.56;;;4.89;100.00
47274;BME280;33007;49.082;19.306;2022-11-11T17:23:23;97602.09;;;4.90;100.00
47274;BME280;33007;49.082;19.306;2022-11-11T17:25:53;97616.31;;;5.01;100.00
47274;BME280;33007;49.082;19.306;2022-11-11T17:28:18;97610.91;;;5.01;100.00
47274;BME280;33007;49.082;19.306;2022-11-11T17:30:44;97651.22;;;5.26;100.00
47274;BME280;33007;49.082;19.306;2022-11-11T17:33:10;97598.19;;;5.12;100.00
47274;BME280;33007;49.082;19.306;2022-11-11T17:35:36;97609.28;;;5.25;100.00
47274;BME280;33007;49.082;19.306;2022-11-11T17:38:01;97616.56;;;5.28;99.88
47274;BME280;33007;49.082;19.306;2022-11-11T17:40:27;97612.72;;;5.25;100.00
47274;BME280;33007;49.082;19.306;2022-11-11T17:42:52;97615.06;;;5.20;99.42
47274;BME280;33007;49.082;19.306;2022-11-11T17:45:19;97598.53;;;5.11;100.00
47274;BME280;33007;49.082;19.306;2022-11-11T17:47:45;97620.78;;;5.33;100.00
47274;BME280;33007;49.082;19.306;2022-11-11T17:50:10;97621.94;;;5.32;100.00
47274;BME280;33007;49.082;19.306;2022-11-11T17:52:36;97612.41;;;5.09;100.00
47274;BME280;33007;49.082;19.306;2022-11-11T17:55:03;97655.06;;;5.25;100.00
47274;BME280;33007;49.082;19.306;2022-11-11T17:57:30;97654.97;;;5.43;100.00
47274;BME280;33007;49.082;19.306;2022-11-11T17:59:55;97620.53;;;4.95;100.00
47274;BME280;33007;49.082;19.306;2022-11-11T18:02:21;97612.09;;;4.96;100.00
47274;BME280;33007;49.082;19.306;2022-11-11T18:04:46;97612.50;;;4.88;100.00
47274;BME280;33007;49.082;19.306;2022-11-11T18:07:12;97617.13;;;4.80;99.28
47274;BME280;33007;49.082;19.306;2022-11-11T18:09:37;97624.44;;;4.76;100.00
47274;BME280;33007;49.082;19.306;2022-11-11T18:12:03;97629.84;;;4.65;99.26
47274;BME280;33007;49.082;19.306;2022-11-11T18:14:29;97607.19;;;4.41;99.65
47274;BME280;33007;49.082;19.306;2022-11-11T18:16:55;97649.09;;;4.64;100.00
